createdAt,value
2023-05-18T00:00:46.814Z,40.85
2023-05-18T00:03:15.545Z,40.62
2023-05-18T00:05:44.148Z,40.86
2023-05-18T00:08:12.772Z,40.77
2023-05-18T00:10:42.606Z,40.93
2023-05-18T00:13:11.255Z,40.74
2023-05-18T00:15:39.735Z,40.64
2023-05-18T00:18:08.684Z,40.58
2023-05-18T00:20:37.896Z,40.82
2023-05-18T00:23:10.607Z,40.78
2023-05-18T00:25:39.181Z,40.90
2023-05-18T00:28:09.138Z,40.81
2023-05-18T00:30:37.926Z,40.54
2023-05-18T00:33:06.631Z,40.56
2023-05-18T00:35:35.073Z,40.64
2023-05-18T00:38:04.055Z,40.81
2023-05-18T00:40:32.459Z,40.85
2023-05-18T00:43:01.194Z,40.47
2023-05-18T00:45:31.338Z,40.63
2023-05-18T00:47:59.980Z,40.62
2023-05-18T00:50:28.669Z,40.89
2023-05-18T00:52:57.134Z,40.54
2023-05-18T00:55:28.032Z,40.49
2023-05-18T00:57:58.019Z,40.59
2023-05-18T01:00:26.626Z,40.88
2023-05-18T01:02:57.623Z,40.43
2023-05-18T01:05:27.349Z,40.48
2023-05-18T01:07:56.795Z,40.76
2023-05-18T01:10:25.208Z,40.65
2023-05-18T01:12:57.548Z,40.75
2023-05-18T01:15:32.593Z,40.84
2023-05-18T01:18:15.234Z,40.52
2023-05-18T01:20:47.919Z,40.52
2023-05-18T01:24:06.212Z,40.44
2023-05-18T01:26:37.661Z,40.53
2023-05-18T01:29:08.736Z,40.73
2023-05-18T01:31:37.459Z,40.40
2023-05-18T01:34:06.270Z,40.39
2023-05-18T01:36:34.696Z,40.69
2023-05-18T01:39:03.802Z,40.44
2023-05-18T01:41:33.768Z,40.42
2023-05-18T01:44:07.262Z,40.30
2023-05-18T01:46:41.296Z,40.59
2023-05-18T01:49:14.610Z,40.29
2023-05-18T01:51:46.753Z,40.54
2023-05-18T01:54:17.841Z,40.54
2023-05-18T01:56:46.374Z,40.24
2023-05-18T01:59:16.402Z,40.55
2023-05-18T02:01:45.527Z,40.54
2023-05-18T02:04:13.973Z,40.52
2023-05-18T02:06:42.391Z,40.32
2023-05-18T02:09:10.943Z,40.40
2023-05-18T02:11:39.412Z,40.50
2023-05-18T02:14:07.915Z,40.26
2023-05-18T02:16:39.321Z,40.44
2023-05-18T02:19:08.154Z,40.38
2023-05-18T02:21:36.610Z,40.13
2023-05-18T02:24:06.032Z,40.47
2023-05-18T02:26:34.420Z,40.54
2023-05-18T02:29:02.981Z,40.13
2023-05-18T02:31:31.793Z,40.19
2023-05-18T02:34:01.622Z,40.16
2023-05-18T02:36:37.681Z,40.25
2023-05-18T02:39:06.685Z,40.10
2023-05-18T02:41:35.148Z,40.33
2023-05-18T02:44:04.189Z,40.21
2023-05-18T02:46:32.634Z,40.19
2023-05-18T02:49:02.785Z,40.22
2023-05-18T02:51:31.492Z,39.98
2023-05-18T02:53:59.938Z,40.32
2023-05-18T02:56:28.852Z,40.05
2023-05-18T02:58:58.520Z,40.04
2023-05-18T03:01:27.643Z,40.11
2023-05-18T03:03:57.849Z,40.04
2023-05-18T03:06:30.687Z,40.30
2023-05-18T03:08:59.276Z,39.99
2023-05-18T03:11:27.709Z,39.91
2023-05-18T03:13:56.431Z,40.00
2023-05-18T03:16:28.811Z,40.13
2023-05-18T03:18:59.472Z,40.24
2023-05-18T03:21:34.211Z,40.33
2023-05-18T03:24:02.984Z,40.22
2023-05-18T03:26:32.006Z,40.30
2023-05-18T03:29:01.405Z,40.17
2023-05-18T03:31:30.247Z,40.12
2023-05-18T03:33:58.647Z,40.08
2023-05-18T03:36:30.324Z,40.03
2023-05-18T06:16:17.883Z,40.51
2023-05-18T06:18:46.458Z,40.30
2023-05-18T06:21:14.905Z,40.74
2023-05-18T06:23:44.657Z,40.02
2023-05-18T06:26:13.078Z,39.27
2023-05-18T06:28:41.738Z,39.77
2023-05-18T06:31:10.504Z,38.16
2023-05-18T06:33:40.289Z,39.53
2023-05-18T06:36:09.812Z,40.20
2023-05-18T06:38:38.222Z,40.53
2023-05-18T06:41:06.809Z,40.26
2023-05-18T06:43:35.389Z,40.53
2023-05-18T06:46:03.866Z,41.00
2023-05-18T06:48:32.513Z,41.13
2023-05-18T06:51:02.255Z,41.06
2023-05-18T06:53:32.053Z,41.12
2023-05-18T06:56:00.911Z,40.74
2023-05-18T06:58:29.391Z,41.07
2023-05-18T07:00:58.300Z,40.91
2023-05-18T07:03:26.860Z,40.47
2023-05-18T07:05:55.306Z,40.72
2023-05-18T07:08:25.437Z,40.52
2023-05-18T07:10:53.816Z,40.72
2023-05-18T07:13:22.425Z,40.77
2023-05-18T07:15:50.877Z,41.05
2023-05-18T07:18:19.557Z,40.67
2023-05-18T07:20:48.143Z,40.60
2023-05-18T07:23:16.586Z,40.00
2023-05-18T07:25:46.548Z,40.15
2023-05-18T07:28:14.970Z,40.34
2023-05-18T07:30:43.554Z,40.18
2023-05-18T07:33:12.070Z,40.40
2023-05-18T07:35:40.543Z,40.21
2023-05-18T07:38:09.148Z,40.40
2023-05-18T07:40:40.092Z,40.28
2023-05-18T07:43:10.570Z,40.22
2023-05-18T07:45:39.044Z,40.47
2023-05-18T07:48:08.047Z,40.35
2023-05-18T07:50:37.273Z,40.37
2023-05-18T07:53:05.752Z,40.29
2023-05-18T07:55:34.438Z,40.33
2023-05-18T07:58:03.131Z,40.28
2023-05-18T08:00:32.954Z,40.20
2023-05-18T08:03:02.258Z,40.04
2023-05-18T08:05:31.513Z,40.18
2023-05-18T08:08:00.259Z,40.36
2023-05-18T08:10:28.880Z,40.42
2023-05-18T08:12:57.523Z,40.35
2023-05-18T08:15:26.187Z,40.41
2023-05-18T08:17:57.376Z,40.80
2023-05-18T08:20:30.279Z,39.67
2023-05-18T08:22:59.301Z,39.90
2023-05-18T08:25:27.777Z,39.91
2023-05-18T08:27:56.198Z,40.04
2023-05-18T08:30:25.897Z,40.08
2023-05-18T08:32:56.461Z,39.95
2023-05-18T08:35:25.298Z,39.96
2023-05-18T08:37:53.734Z,40.21
2023-05-18T08:40:22.532Z,39.88
2023-05-18T08:42:59.376Z,40.36
2023-05-18T08:45:33.707Z,40.19
2023-05-18T08:48:03.719Z,40.58
2023-05-18T08:50:33.933Z,40.32
2023-05-18T08:53:04.126Z,40.74
2023-05-18T08:55:34.998Z,40.40
2023-05-18T08:58:03.631Z,40.58
2023-05-18T09:00:32.452Z,40.10
2023-05-18T09:03:03.632Z,40.24
2023-05-18T09:05:32.777Z,40.69
2023-05-18T09:08:01.760Z,40.31
2023-05-18T09:10:30.197Z,40.13
2023-05-18T09:12:58.774Z,40.42
2023-05-18T09:15:28.127Z,40.27
2023-05-18T09:17:56.971Z,40.21
2023-05-18T09:20:27.084Z,40.12
2023-05-18T09:22:55.547Z,39.99
2023-05-18T09:25:24.211Z,39.92
2023-05-18T09:27:53.427Z,40.27
2023-05-18T09:30:22.095Z,40.21
2023-05-18T09:32:52.403Z,39.94
2023-05-18T09:35:20.999Z,40.24
2023-05-18T09:37:52.485Z,39.83
2023-05-18T09:40:21.189Z,40.15
2023-05-18T09:42:50.077Z,39.79
2023-05-18T09:45:19.878Z,40.00
2023-05-18T09:47:48.603Z,40.03
2023-05-18T09:50:19.234Z,39.71
2023-05-18T09:52:49.439Z,39.78
2023-05-18T09:55:19.910Z,39.76
2023-05-18T09:57:49.202Z,39.64
2023-05-18T10:00:19.499Z,39.60
2023-05-18T10:02:50.725Z,39.93
2023-05-18T10:05:22.902Z,39.69
2023-05-18T10:07:52.502Z,39.58
2023-05-18T10:10:24.149Z,39.65
2023-05-18T10:12:53.027Z,39.51
2023-05-18T10:15:23.268Z,39.56
2023-05-18T10:17:53.369Z,39.89
2023-05-18T10:20:24.335Z,39.74
2023-05-18T10:22:53.070Z,39.66
2023-05-18T10:25:24.180Z,39.55
2023-05-18T10:27:57.800Z,39.46
2023-05-18T10:30:26.307Z,39.49
2023-05-18T10:32:54.837Z,39.33
2023-05-18T10:35:23.996Z,39.77
2023-05-18T10:37:53.156Z,40.02
2023-05-18T10:40:23.220Z,40.00
2023-05-18T10:42:51.968Z,39.67
2023-05-18T10:45:20.582Z,39.50
2023-05-18T10:47:53.646Z,39.34
2023-05-18T10:50:22.897Z,39.63
2023-05-18T10:52:51.452Z,39.36
2023-05-18T10:55:20.172Z,39.55
2023-05-18T10:57:52.623Z,39.85
2023-05-18T11:00:21.519Z,39.68
2023-05-18T11:02:50.072Z,39.81
2023-05-18T11:05:24.883Z,39.98
2023-05-18T11:08:00.796Z,40.09
2023-05-18T11:10:36.185Z,40.07
2023-05-18T11:13:07.371Z,40.05
2023-05-18T11:16:05.255Z,39.80
2023-05-18T11:18:45.819Z,40.20
2023-05-18T11:21:35.784Z,39.99
2023-05-18T11:24:31.853Z,39.95
2023-05-18T11:27:03.449Z,39.99
2023-05-18T11:29:36.987Z,39.85
2023-05-18T11:32:05.723Z,39.80
2023-05-18T11:34:42.512Z,39.95
2023-05-18T11:37:11.133Z,39.86
2023-05-18T11:39:48.107Z,40.37
2023-05-18T11:42:19.628Z,40.30
2023-05-18T11:44:55.779Z,40.31
2023-05-18T11:47:25.636Z,40.20
2023-05-18T11:49:54.422Z,40.30
2023-05-18T11:52:24.852Z,39.31
2023-05-18T11:54:54.384Z,39.82
2023-05-18T11:57:26.850Z,40.03
2023-05-18T11:59:58.711Z,39.93
2023-05-18T12:02:29.878Z,40.40
2023-05-18T12:05:00.392Z,40.03
2023-05-18T12:07:29.874Z,40.36
2023-05-18T12:10:00.104Z,40.34
2023-05-18T12:12:29.273Z,40.60
2023-05-18T12:15:00.300Z,40.47
2023-05-18T12:17:40.008Z,40.45
2023-05-18T12:20:11.368Z,40.64
2023-05-18T12:22:40.535Z,40.42
2023-05-18T12:25:10.992Z,40.37
2023-05-18T12:27:40.853Z,40.81
2023-05-18T12:30:14.149Z,40.83
2023-05-18T12:32:46.342Z,40.70
2023-05-18T12:35:15.093Z,40.80
2023-05-18T12:37:45.821Z,40.36
2023-05-18T12:40:17.169Z,40.36
2023-05-18T12:42:54.227Z,40.42
2023-05-18T12:45:28.040Z,40.51
2023-05-18T12:47:57.406Z,40.56
2023-05-18T12:50:27.138Z,40.29
2023-05-18T12:52:57.230Z,40.53
2023-05-18T12:55:26.755Z,40.54
2023-05-18T12:58:04.416Z,40.42
2023-05-18T13:00:37.847Z,40.41
2023-05-18T13:03:13.628Z,40.52
2023-05-18T13:05:45.015Z,40.43
2023-05-18T13:08:16.458Z,40.53
2023-05-18T13:10:45.637Z,40.59
2023-05-18T13:13:16.778Z,40.88
2023-05-18T13:15:46.877Z,41.14
2023-05-18T13:18:15.555Z,40.62
2023-05-18T13:20:48.346Z,40.78
2023-05-18T13:23:18.207Z,40.65
2023-05-18T13:25:46.926Z,40.79
2023-05-18T13:28:16.698Z,40.89
2023-05-18T13:30:48.410Z,40.95
2023-05-18T13:33:18.813Z,40.80
2023-05-18T13:35:48.664Z,40.82
2023-05-18T13:38:17.081Z,40.75
2023-05-18T13:40:45.949Z,40.65
2023-05-18T13:43:14.448Z,40.72
2023-05-18T13:45:43.524Z,40.70
2023-05-18T13:48:14.428Z,40.92
2023-05-18T13:50:43.147Z,40.80
2023-05-18T13:53:11.745Z,41.08
2023-05-18T13:55:40.186Z,40.97
2023-05-18T13:58:08.878Z,41.22
2023-05-18T14:00:38.143Z,40.83
2023-05-18T14:03:06.670Z,40.95
2023-05-18T14:05:37.148Z,40.59
2023-05-18T14:08:06.177Z,40.74
2023-05-18T14:10:35.027Z,40.78
2023-05-18T14:13:03.465Z,40.48
2023-05-18T14:15:31.901Z,40.58
2023-05-18T14:18:00.393Z,40.61
2023-05-18T14:20:29.970Z,40.74
2023-05-18T14:23:00.492Z,40.74
2023-05-18T14:25:28.955Z,40.55
2023-05-18T14:27:57.445Z,40.60
2023-05-18T14:30:25.914Z,40.64
2023-05-18T14:32:54.763Z,40.79
2023-05-18T14:35:23.340Z,40.75
2023-05-18T14:37:51.748Z,40.74
2023-05-18T14:40:23.003Z,40.55
2023-05-18T14:42:53.673Z,40.69
2023-05-18T14:45:22.428Z,40.60
2023-05-18T14:47:50.988Z,40.75
2023-05-18T14:50:19.526Z,40.51
2023-05-18T14:52:48.006Z,40.47
2023-05-18T14:55:16.863Z,40.84
2023-05-18T14:57:46.836Z,40.38
2023-05-18T15:00:16.628Z,40.73
2023-05-18T15:02:45.155Z,40.80
2023-05-18T15:05:14.122Z,40.72
2023-05-18T15:07:42.621Z,40.70
2023-05-18T15:10:11.895Z,40.62
2023-05-18T15:12:40.655Z,40.67
2023-05-18T15:15:12.129Z,40.68
2023-05-18T15:17:40.817Z,40.60
2023-05-18T15:20:10.865Z,40.88
2023-05-18T15:22:41.512Z,40.51
2023-05-18T15:25:10.812Z,40.79
2023-05-18T15:27:39.415Z,40.80
2023-05-18T15:30:13.100Z,41.20
2023-05-18T15:32:42.621Z,40.77
2023-05-18T15:35:11.527Z,41.22
2023-05-18T15:37:39.992Z,41.08
2023-05-18T15:40:10.335Z,40.98
2023-05-18T15:42:38.995Z,41.34
2023-05-18T15:45:10.972Z,41.24
2023-05-18T15:47:39.946Z,41.24
2023-05-18T15:50:09.474Z,41.27
2023-05-18T15:52:37.948Z,41.41
2023-05-18T15:55:07.998Z,41.61
2023-05-18T15:57:36.533Z,41.53
2023-05-18T16:00:05.794Z,40.89
2023-05-18T16:02:36.043Z,41.19
2023-05-18T16:05:05.088Z,41.21
2023-05-18T16:07:33.784Z,41.20
2023-05-18T16:10:02.275Z,40.66
2023-05-18T16:12:31.008Z,41.43
2023-05-18T16:14:59.514Z,41.22
2023-05-18T16:17:28.070Z,42.12
2023-05-18T16:19:58.202Z,41.39
2023-05-18T16:22:26.757Z,41.60
2023-05-18T16:24:57.769Z,41.41
2023-05-18T16:27:26.322Z,41.66
2023-05-18T16:29:54.747Z,41.93
2023-05-18T16:32:24.835Z,41.51
2023-05-18T16:34:53.426Z,41.21
2023-05-18T16:37:23.890Z,41.25
2023-05-18T16:39:52.331Z,41.47
2023-05-18T16:42:22.397Z,41.64
2023-05-18T16:44:51.215Z,41.59
2023-05-18T16:47:19.635Z,41.94
2023-05-18T16:49:48.354Z,41.55
2023-05-18T16:52:18.430Z,41.03
2023-05-18T16:54:48.504Z,41.76
2023-05-18T16:57:17.377Z,42.10
2023-05-18T16:59:45.922Z,41.68
2023-05-18T17:02:14.766Z,40.91
2023-05-18T17:04:44.893Z,41.56
2023-05-18T17:07:14.150Z,41.92
2023-05-18T17:09:42.937Z,41.58
2023-05-18T17:12:13.102Z,41.57
2023-05-18T17:14:41.801Z,41.93
2023-05-18T17:17:10.445Z,41.79
2023-05-18T17:19:40.288Z,42.05
2023-05-18T17:22:10.037Z,41.69
2023-05-18T17:24:38.615Z,41.82
2023-05-18T17:27:07.534Z,41.58
2023-05-18T17:29:37.779Z,41.78
2023-05-18T17:32:07.313Z,41.61
2023-05-18T17:34:35.804Z,41.53
2023-05-18T17:37:05.030Z,41.48
2023-05-18T17:39:33.562Z,41.76
2023-05-18T17:42:03.438Z,41.60
2023-05-18T17:44:32.056Z,41.62
2023-05-18T17:47:02.255Z,41.79
2023-05-18T17:49:32.649Z,41.70
2023-05-18T17:52:01.181Z,41.52
2023-05-18T17:54:29.719Z,41.31
2023-05-18T17:56:58.365Z,41.86
2023-05-18T17:59:26.959Z,41.92
2023-05-18T18:01:55.478Z,41.52
2023-05-18T18:04:25.674Z,41.54
2023-05-18T18:06:54.780Z,41.47
2023-05-18T18:09:23.572Z,41.75
2023-05-18T18:11:51.964Z,41.17
2023-05-18T18:14:20.692Z,41.14
2023-05-18T18:16:49.851Z,41.28
2023-05-18T18:19:18.577Z,40.59
2023-05-18T18:21:48.609Z,41.11
2023-05-18T18:24:17.069Z,41.13
2023-05-18T18:26:45.721Z,41.14
2023-05-18T18:29:14.126Z,41.09
2023-05-18T18:31:42.604Z,40.63
2023-05-18T18:34:12.039Z,40.97
2023-05-18T18:36:41.068Z,40.94
2023-05-18T18:39:11.405Z,40.98
2023-05-18T18:41:39.866Z,40.61
2023-05-18T18:44:08.498Z,40.78
2023-05-18T18:46:37.152Z,40.37
2023-05-18T18:49:05.739Z,40.61
2023-05-18T18:51:34.455Z,40.41
2023-05-18T18:54:03.026Z,40.38
2023-05-18T18:56:32.898Z,40.78
2023-05-18T18:59:01.571Z,40.35
2023-05-18T19:01:30.189Z,40.41
2023-05-18T19:03:59.134Z,40.74
2023-05-18T19:06:27.772Z,40.12
2023-05-18T19:08:56.378Z,40.65
2023-05-18T19:11:24.878Z,40.90
2023-05-18T19:13:54.961Z,40.94
2023-05-18T19:16:23.564Z,40.74
2023-05-18T19:18:52.274Z,40.42
2023-05-18T19:21:21.687Z,40.34
2023-05-18T19:23:50.166Z,41.12
2023-05-18T19:26:18.718Z,41.19
2023-05-18T19:28:47.237Z,41.56
2023-05-18T19:31:17.182Z,41.30
2023-05-18T19:33:45.742Z,41.88
2023-05-18T19:36:14.400Z,41.85
2023-05-18T19:38:42.885Z,41.69
2023-05-18T19:41:12.807Z,41.75
2023-05-18T19:43:41.242Z,41.81
2023-05-18T19:46:09.901Z,41.38
2023-05-18T19:48:39.911Z,41.66
2023-05-18T19:51:08.639Z,41.74
2023-05-18T19:53:37.909Z,41.60
2023-05-18T19:56:07.070Z,42.45
2023-05-18T19:58:35.612Z,42.19
2023-05-18T20:01:04.420Z,41.91
2023-05-18T20:03:33.566Z,42.25
2023-05-18T20:06:05.198Z,41.90
2023-05-18T20:08:33.968Z,41.84
2023-05-18T20:11:03.444Z,41.94
2023-05-18T20:13:31.895Z,41.82
2023-05-18T20:16:00.584Z,41.56
2023-05-18T20:18:29.238Z,41.58
2023-05-18T20:20:57.673Z,41.70
2023-05-18T20:23:27.727Z,41.79
2023-05-18T20:25:56.272Z,41.48
2023-05-18T20:28:26.444Z,41.36
2023-05-18T20:30:54.880Z,41.60
2023-05-18T20:33:23.398Z,41.38
2023-05-18T20:35:52.083Z,41.11
2023-05-18T20:38:20.530Z,41.19
2023-05-18T20:40:51.180Z,41.27
2023-05-18T20:43:19.976Z,41.58
2023-05-18T20:45:49.658Z,41.73
2023-05-18T20:48:24.904Z,41.57
2023-05-18T20:50:53.474Z,41.33
2023-05-18T20:53:21.996Z,41.25
2023-05-18T20:55:54.504Z,41.31
2023-05-18T20:58:23.009Z,41.58
2023-05-18T21:00:52.210Z,41.56
2023-05-18T21:03:22.449Z,41.33
2023-05-18T21:05:51.873Z,41.27
2023-05-18T21:08:20.829Z,41.25
2023-05-18T21:10:49.279Z,41.32
2023-05-18T21:13:19.324Z,41.12
2023-05-18T21:15:48.023Z,41.22
2023-05-18T21:18:16.975Z,41.29
2023-05-18T21:20:45.445Z,40.90
2023-05-18T21:23:13.816Z,41.21
2023-05-18T21:25:42.245Z,40.91
2023-05-18T21:28:10.859Z,41.04
2023-05-18T21:30:41.113Z,41.05
2023-05-18T21:33:09.746Z,40.91
2023-05-18T21:35:38.233Z,41.22
2023-05-18T21:38:06.606Z,41.08
2023-05-18T21:40:36.353Z,41.24
2023-05-18T21:43:04.756Z,40.90
2023-05-18T21:45:33.626Z,41.02
2023-05-18T21:48:03.566Z,40.96
2023-05-18T21:50:35.375Z,41.14
2023-05-18T21:53:04.337Z,41.10
2023-05-18T21:55:33.116Z,41.14
2023-05-18T21:58:01.665Z,40.85
2023-05-18T22:00:30.670Z,41.06
2023-05-18T22:02:59.860Z,40.98
2023-05-18T22:05:29.757Z,40.80
2023-05-18T22:07:59.168Z,40.92
2023-05-18T22:10:27.739Z,40.83
2023-05-18T22:12:56.257Z,40.85
2023-05-18T22:15:24.865Z,41.06
2023-05-18T22:17:54.541Z,40.92
2023-05-18T22:20:24.098Z,41.18
2023-05-18T22:22:53.968Z,41.12
2023-05-18T22:25:22.601Z,41.05
2023-05-18T22:27:51.418Z,40.49
2023-05-18T22:30:20.816Z,40.78
2023-05-18T22:32:49.427Z,40.71
2023-05-18T22:35:18.063Z,40.56
2023-05-18T22:37:46.851Z,40.71
2023-05-18T22:40:16.739Z,40.60
2023-05-18T22:42:45.289Z,40.92
2023-05-18T22:45:14.045Z,40.92
2023-05-18T22:47:45.318Z,40.98
2023-05-18T22:50:14.010Z,40.72
2023-05-18T22:52:42.422Z,41.08
2023-05-18T22:55:13.452Z,40.80
2023-05-18T22:57:43.633Z,40.96
2023-05-18T23:00:14.411Z,40.66
2023-05-18T23:02:43.170Z,41.02
2023-05-18T23:05:11.874Z,40.95
2023-05-18T23:07:42.045Z,40.99
2023-05-18T23:10:12.254Z,41.04
2023-05-18T23:12:42.693Z,41.13
2023-05-18T23:15:11.953Z,40.82
2023-05-18T23:17:40.564Z,40.88
2023-05-18T23:20:11.614Z,40.70
2023-05-18T23:22:40.123Z,40.65
2023-05-18T23:25:10.439Z,40.59
2023-05-18T23:27:38.829Z,40.87
2023-05-18T23:30:10.097Z,40.66
2023-05-18T23:32:39.444Z,40.88
2023-05-18T23:35:10.776Z,40.69
2023-05-18T23:37:43.069Z,40.58
2023-05-18T23:40:13.772Z,40.60
2023-05-18T23:42:43.110Z,40.81
2023-05-18T23:45:15.491Z,40.70
2023-05-18T23:47:44.688Z,40.68
2023-05-18T23:50:15.846Z,40.71
2023-05-18T23:52:44.563Z,40.57
2023-05-18T23:55:13.593Z,40.45
2023-05-18T23:57:42.769Z,40.74
